UTA383 UUWW-ULLI
Flight info
| Callsign | UTA383 |
|---|---|
| Flight time | 1h 6m |
| Altitude | 40000 |
| Route | SUNUN3Y SUNUN M869 RAVKA N50 NUDKO T561 ODATI T875 GENPA GENPA1V |
| Aircraft | B752/M-SDE3FGHIM3RWXY/LB1 |
Departure
| Time | 2026-05-04 17:45 |
|---|---|
| Airport | Vnukovo International Airport (UUWW) |
Arrival
| Time | 2026-05-04 18:51 |
|---|---|
| Airport | Pulkovo Airport (ULLI) |
| Time | Latitude | Longitude | Altitude | Speed | Heading |
|---|---|---|---|---|---|
| 2026-05-04 17:10 | 55.60318 | 37.27986 | 692 ft | 0 kts | 95° |
| 2026-05-04 17:31 | 55.60320 | 37.27956 | 692 ft | 2 kts | 95° |
| 2026-05-04 17:32 | 55.60323 | 37.27903 | 692 ft | 2 kts | 95° |
| 2026-05-04 17:33 | 55.60348 | 37.27854 | 692 ft | 0 kts | 183° |
| 2026-05-04 17:33 | 55.60355 | 37.27855 | 692 ft | 1 kts | 187° |
| 2026-05-04 17:34 | 55.60355 | 37.27856 | 692 ft | 0 kts | 187° |
| 2026-05-04 17:39 | 55.60312 | 37.27846 | 693 ft | 6 kts | 187° |
| 2026-05-04 17:39 | 55.60263 | 37.27837 | 693 ft | 7 kts | 184° |
| 2026-05-04 17:39 | 55.60209 | 37.27840 | 693 ft | 8 kts | 172° |
| 2026-05-04 17:40 | 55.60154 | 37.27874 | 693 ft | 8 kts | 149° |
| 2026-05-04 17:40 | 55.60107 | 37.27949 | 693 ft | 9 kts | 127° |
| 2026-05-04 17:40 | 55.60078 | 37.28053 | 693 ft | 9 kts | 106° |
| 2026-05-04 17:40 | 55.60074 | 37.28169 | 693 ft | 9 kts | 84° |
| 2026-05-04 17:41 | 55.60080 | 37.28285 | 693 ft | 9 kts | 84° |
| 2026-05-04 17:41 | 55.60093 | 37.28408 | 693 ft | 10 kts | 67° |
| 2026-05-04 17:41 | 55.60138 | 37.28511 | 693 ft | 11 kts | 46° |
| 2026-05-04 17:41 | 55.60193 | 37.28611 | 693 ft | 11 kts | 50° |
| 2026-05-04 17:42 | 55.60207 | 37.28739 | 693 ft | 10 kts | 124° |
| 2026-05-04 17:42 | 55.60147 | 37.28825 | 693 ft | 11 kts | 144° |
| 2026-05-04 17:42 | 55.60074 | 37.28881 | 693 ft | 11 kts | 168° |
| 2026-05-04 17:42 | 55.59992 | 37.28916 | 693 ft | 12 kts | 166° |
| 2026-05-04 17:43 | 55.59908 | 37.28951 | 693 ft | 12 kts | 166° |
| 2026-05-04 17:43 | 55.59831 | 37.28983 | 693 ft | 10 kts | 171° |
| 2026-05-04 17:43 | 55.59782 | 37.28935 | 693 ft | 8 kts | 242° |
| 2026-05-04 17:43 | 55.59760 | 37.28837 | 693 ft | 8 kts | 249° |
| 2026-05-04 17:44 | 55.59737 | 37.28732 | 693 ft | 9 kts | 248° |
| 2026-05-04 17:44 | 55.59708 | 37.28600 | 693 ft | 15 kts | 248° |
| 2026-05-04 17:44 | 55.59650 | 37.28349 | 693 ft | 36 kts | 247° |
| 2026-05-04 17:44 | 55.59454 | 37.27497 | 693 ft | 111 kts | 248° |
| 2026-05-04 17:45 | 55.59087 | 37.25855 | 736 ft | 171 kts | 247° |
| 2026-05-04 17:45 | 55.58629 | 37.23823 | 1352 ft | 189 kts | 247° |
| 2026-05-04 17:45 | 55.58158 | 37.21791 | 2621 ft | 176 kts | 249° |
| 2026-05-04 17:45 | 55.57586 | 37.20115 | 3775 ft | 166 kts | 230° |
| 2026-05-04 17:46 | 55.56786 | 37.18646 | 4612 ft | 171 kts | 232° |
| 2026-05-04 17:46 | 55.56029 | 37.17050 | 5393 ft | 178 kts | 234° |
| 2026-05-04 17:46 | 55.55253 | 37.15246 | 6018 ft | 195 kts | 243° |
| 2026-05-04 17:46 | 55.54926 | 37.12887 | 6666 ft | 210 kts | 268° |
| 2026-05-04 17:47 | 55.54903 | 37.10243 | 7361 ft | 228 kts | 268° |
| 2026-05-04 17:47 | 55.54915 | 37.07291 | 7945 ft | 253 kts | 277° |
| 2026-05-04 17:47 | 55.55577 | 37.04268 | 8350 ft | 281 kts | 307° |
| 2026-05-04 17:47 | 55.57074 | 37.02308 | 9822 ft | 274 kts | 336° |
| 2026-05-04 17:48 | 55.58904 | 37.01852 | 11129 ft | 271 kts | 1° |
| 2026-05-04 17:48 | 55.60775 | 37.02190 | 12103 ft | 275 kts | 1° |
| 2026-05-04 17:48 | 55.62681 | 37.02372 | 13112 ft | 277 kts | 359° |
| 2026-05-04 17:48 | 55.64600 | 37.02112 | 13777 ft | 289 kts | 341° |
| 2026-05-04 17:49 | 55.66537 | 37.00820 | 14420 ft | 302 kts | 336° |
| 2026-05-04 17:49 | 55.68466 | 36.99465 | 15403 ft | 305 kts | 336° |
| 2026-05-04 17:49 | 55.70445 | 36.98052 | 16292 ft | 310 kts | 335° |
| 2026-05-04 17:49 | 55.72442 | 36.96606 | 17156 ft | 316 kts | 335° |
| 2026-05-04 17:50 | 55.74477 | 36.95101 | 18043 ft | 320 kts | 334° |
| 2026-05-04 17:50 | 55.76515 | 36.93440 | 18696 ft | 330 kts | 327° |
| 2026-05-04 17:50 | 55.78370 | 36.90848 | 18938 ft | 349 kts | 310° |
| 2026-05-04 17:50 | 55.79795 | 36.87288 | 19255 ft | 366 kts | 300° |
| 2026-05-04 17:51 | 55.81198 | 36.83516 | 20021 ft | 372 kts | 304° |
| 2026-05-04 17:51 | 55.82759 | 36.79816 | 20843 ft | 376 kts | 306° |
| 2026-05-04 17:51 | 55.84386 | 36.76178 | 21610 ft | 381 kts | 308° |
| 2026-05-04 17:51 | 55.86062 | 36.72561 | 22371 ft | 385 kts | 308° |
| 2026-05-04 17:52 | 55.87792 | 36.68905 | 23116 ft | 388 kts | 309° |
| 2026-05-04 17:52 | 55.89553 | 36.65226 | 23825 ft | 393 kts | 309° |
| 2026-05-04 17:52 | 55.91328 | 36.61540 | 24550 ft | 396 kts | 309° |
| 2026-05-04 17:52 | 55.93129 | 36.57809 | 25206 ft | 401 kts | 309° |
| 2026-05-04 17:53 | 55.94950 | 36.54040 | 25881 ft | 405 kts | 309° |
| 2026-05-04 17:53 | 55.96804 | 36.50205 | 26535 ft | 409 kts | 309° |
| 2026-05-04 17:53 | 55.98660 | 36.46361 | 27157 ft | 412 kts | 309° |
| 2026-05-04 17:53 | 56.00533 | 36.42477 | 27793 ft | 415 kts | 309° |
| 2026-05-04 17:54 | 56.02420 | 36.38560 | 28368 ft | 419 kts | 309° |
| 2026-05-04 17:54 | 56.04310 | 36.34631 | 28929 ft | 423 kts | 308° |
| 2026-05-04 17:54 | 56.06239 | 36.30613 | 29527 ft | 425 kts | 308° |
| 2026-05-04 17:54 | 56.08189 | 36.26546 | 30081 ft | 428 kts | 308° |
| 2026-05-04 17:55 | 56.10134 | 36.22483 | 30644 ft | 431 kts | 308° |
| 2026-05-04 17:55 | 56.12068 | 36.18435 | 31227 ft | 431 kts | 308° |
| 2026-05-04 17:55 | 56.13963 | 36.14331 | 31867 ft | 429 kts | 304° |
| 2026-05-04 17:55 | 56.15522 | 36.09777 | 32454 ft | 426 kts | 295° |
| 2026-05-04 17:56 | 56.16832 | 36.05038 | 33031 ft | 425 kts | 295° |
| 2026-05-04 17:56 | 56.18133 | 36.00309 | 33582 ft | 425 kts | 295° |
| 2026-05-04 17:56 | 56.19482 | 35.95587 | 34112 ft | 424 kts | 300° |
| 2026-05-04 17:56 | 56.21177 | 35.91325 | 34605 ft | 426 kts | 309° |
| 2026-05-04 17:57 | 56.23303 | 35.87607 | 35072 ft | 427 kts | 319° |
| 2026-05-04 17:57 | 56.25647 | 35.84352 | 35503 ft | 427 kts | 320° |
| 2026-05-04 17:57 | 56.27971 | 35.81171 | 35951 ft | 425 kts | 321° |
| 2026-05-04 17:57 | 56.30317 | 35.77986 | 36341 ft | 424 kts | 321° |
| 2026-05-04 17:58 | 56.32661 | 35.74822 | 36746 ft | 423 kts | 321° |
| 2026-05-04 17:58 | 56.35013 | 35.71656 | 37266 ft | 421 kts | 321° |
| 2026-05-04 17:58 | 56.37353 | 35.68508 | 37696 ft | 421 kts | 321° |
| 2026-05-04 17:58 | 56.39709 | 35.65337 | 38157 ft | 420 kts | 321° |
| 2026-05-04 17:59 | 56.42038 | 35.62204 | 38609 ft | 419 kts | 321° |
| 2026-05-04 17:59 | 56.44363 | 35.59075 | 38960 ft | 419 kts | 321° |
| 2026-05-04 17:59 | 56.49027 | 35.52791 | 39568 ft | 419 kts | 321° |
| 2026-05-04 18:00 | 56.51364 | 35.49635 | 39830 ft | 416 kts | 321° |
| 2026-05-04 18:00 | 56.55990 | 35.43372 | 39826 ft | 416 kts | 321° |
| 2026-05-04 18:01 | 56.60589 | 35.37077 | 39821 ft | 416 kts | 320° |
| 2026-05-04 18:01 | 56.65214 | 35.30696 | 39825 ft | 416 kts | 319° |
| 2026-05-04 18:02 | 56.72088 | 35.21177 | 39822 ft | 416 kts | 319° |
| 2026-05-04 18:02 | 56.76680 | 35.14794 | 39823 ft | 415 kts | 319° |
| 2026-05-04 18:03 | 56.81243 | 35.08430 | 39832 ft | 415 kts | 319° |
| 2026-05-04 18:03 | 56.85807 | 35.02043 | 39825 ft | 415 kts | 319° |
| 2026-05-04 18:04 | 56.90381 | 34.95623 | 39822 ft | 414 kts | 319° |
| 2026-05-04 18:05 | 56.97581 | 34.86872 | 39822 ft | 417 kts | 323° |
| 2026-05-04 18:05 | 57.02430 | 34.81074 | 39820 ft | 419 kts | 323° |
| 2026-05-04 18:06 | 57.09811 | 34.72206 | 39813 ft | 429 kts | 323° |
| 2026-05-04 18:06 | 57.14802 | 34.66185 | 39805 ft | 436 kts | 323° |
| 2026-05-04 18:07 | 57.19884 | 34.60038 | 39788 ft | 436 kts | 323° |
| 2026-05-04 18:07 | 57.24956 | 34.53879 | 39783 ft | 435 kts | 323° |
| 2026-05-04 18:08 | 57.29969 | 34.47770 | 39775 ft | 436 kts | 323° |
| 2026-05-04 18:08 | 57.35025 | 34.41590 | 39767 ft | 436 kts | 323° |
| 2026-05-04 18:09 | 57.45117 | 34.29189 | 39768 ft | 437 kts | 322° |
| 2026-05-04 18:10 | 57.50197 | 34.22916 | 39771 ft | 438 kts | 322° |
| 2026-05-04 18:10 | 57.55242 | 34.16666 | 39759 ft | 437 kts | 322° |
| 2026-05-04 18:11 | 57.60273 | 34.10409 | 39765 ft | 437 kts | 322° |
| 2026-05-04 18:11 | 57.65294 | 34.04146 | 39759 ft | 436 kts | 322° |
| 2026-05-04 18:12 | 57.70337 | 33.97834 | 39757 ft | 435 kts | 322° |
| 2026-05-04 18:12 | 57.75343 | 33.91545 | 39747 ft | 436 kts | 321° |
| 2026-05-04 18:13 | 57.80383 | 33.85195 | 39760 ft | 437 kts | 321° |
| 2026-05-04 18:14 | 57.87899 | 33.75580 | 39733 ft | 434 kts | 317° |
| 2026-05-04 18:14 | 57.92562 | 33.68460 | 39742 ft | 436 kts | 316° |
| 2026-05-04 18:15 | 58.01953 | 33.54133 | 39738 ft | 435 kts | 316° |
| 2026-05-04 18:16 | 58.06661 | 33.46926 | 39734 ft | 437 kts | 316° |
| 2026-05-04 18:16 | 58.11356 | 33.39713 | 39723 ft | 437 kts | 316° |
| 2026-05-04 18:17 | 58.16158 | 33.32306 | 38406 ft | 449 kts | 315° |
| 2026-05-04 18:17 | 58.18565 | 33.28595 | 37991 ft | 435 kts | 315° |
| 2026-05-04 18:17 | 58.23206 | 33.21410 | 36527 ft | 438 kts | 315° |
| 2026-05-04 18:18 | 58.25586 | 33.17710 | 35854 ft | 442 kts | 315° |
| 2026-05-04 18:18 | 58.27943 | 33.14044 | 35189 ft | 443 kts | 315° |
| 2026-05-04 18:18 | 58.30314 | 33.10354 | 34439 ft | 443 kts | 315° |
| 2026-05-04 18:18 | 58.32695 | 33.06637 | 33621 ft | 444 kts | 315° |
| 2026-05-04 18:19 | 58.37505 | 32.99108 | 31985 ft | 453 kts | 315° |
| 2026-05-04 18:19 | 58.39926 | 32.95307 | 31179 ft | 457 kts | 315° |
| 2026-05-04 18:19 | 58.42372 | 32.91462 | 30462 ft | 457 kts | 315° |
| 2026-05-04 18:20 | 58.44779 | 32.87686 | 30322 ft | 434 kts | 315° |
| 2026-05-04 18:20 | 58.47053 | 32.84110 | 29701 ft | 417 kts | 314° |
| 2026-05-04 18:20 | 58.49248 | 32.80639 | 28482 ft | 413 kts | 314° |
| 2026-05-04 18:20 | 58.51409 | 32.77213 | 27453 ft | 404 kts | 314° |
| 2026-05-04 18:21 | 58.53514 | 32.73883 | 26798 ft | 383 kts | 314° |
| 2026-05-04 18:21 | 58.55569 | 32.70608 | 26266 ft | 393 kts | 313° |
| 2026-05-04 18:21 | 58.57699 | 32.67196 | 25684 ft | 405 kts | 314° |
| 2026-05-04 18:21 | 58.59852 | 32.63776 | 25079 ft | 398 kts | 314° |
| 2026-05-04 18:22 | 58.61955 | 32.60431 | 24696 ft | 383 kts | 313° |
| 2026-05-04 18:22 | 58.63948 | 32.57253 | 24699 ft | 374 kts | 313° |
| 2026-05-04 18:22 | 58.65961 | 32.54012 | 24708 ft | 388 kts | 313° |
| 2026-05-04 18:22 | 58.68064 | 32.50631 | 24692 ft | 392 kts | 313° |
| 2026-05-04 18:23 | 58.70158 | 32.47276 | 24683 ft | 390 kts | 313° |
| 2026-05-04 18:23 | 58.72239 | 32.43931 | 24692 ft | 390 kts | 313° |
| 2026-05-04 18:23 | 58.74301 | 32.40606 | 24691 ft | 391 kts | 313° |
| 2026-05-04 18:23 | 58.76382 | 32.37250 | 24680 ft | 389 kts | 313° |
| 2026-05-04 18:24 | 58.78439 | 32.33924 | 24679 ft | 387 kts | 312° |
| 2026-05-04 18:24 | 58.80495 | 32.30595 | 24685 ft | 388 kts | 313° |
| 2026-05-04 18:24 | 58.82576 | 32.27217 | 24684 ft | 389 kts | 312° |
| 2026-05-04 18:24 | 58.84637 | 32.23872 | 24672 ft | 388 kts | 312° |
| 2026-05-04 18:25 | 58.86706 | 32.20503 | 24672 ft | 389 kts | 312° |
| 2026-05-04 18:25 | 58.88766 | 32.17146 | 24671 ft | 390 kts | 312° |
| 2026-05-04 18:25 | 58.90740 | 32.13924 | 24667 ft | 389 kts | 313° |
| 2026-05-04 18:25 | 58.92782 | 32.10588 | 24666 ft | 387 kts | 313° |
| 2026-05-04 18:26 | 58.94855 | 32.07190 | 24680 ft | 388 kts | 312° |
| 2026-05-04 18:26 | 58.96891 | 32.03852 | 24662 ft | 387 kts | 312° |
| 2026-05-04 18:26 | 58.98957 | 32.00457 | 24659 ft | 386 kts | 312° |
| 2026-05-04 18:26 | 59.00989 | 31.97113 | 24669 ft | 387 kts | 312° |
| 2026-05-04 18:27 | 59.03040 | 31.93733 | 24658 ft | 387 kts | 312° |
| 2026-05-04 18:27 | 59.05091 | 31.90346 | 24665 ft | 388 kts | 312° |
| 2026-05-04 18:27 | 59.07151 | 31.86939 | 24663 ft | 391 kts | 312° |
| 2026-05-04 18:27 | 59.09217 | 31.83515 | 24660 ft | 390 kts | 312° |
| 2026-05-04 18:28 | 59.11245 | 31.80068 | 24654 ft | 386 kts | 309° |
| 2026-05-04 18:28 | 59.13142 | 31.76461 | 24650 ft | 385 kts | 308° |
| 2026-05-04 18:28 | 59.15071 | 31.72794 | 24642 ft | 385 kts | 308° |
| 2026-05-04 18:28 | 59.16988 | 31.69155 | 24639 ft | 386 kts | 308° |
| 2026-05-04 18:29 | 59.18906 | 31.65508 | 24642 ft | 384 kts | 308° |
| 2026-05-04 18:29 | 59.20822 | 31.61862 | 24650 ft | 386 kts | 308° |
| 2026-05-04 18:29 | 59.22755 | 31.58172 | 24346 ft | 391 kts | 308° |
| 2026-05-04 18:29 | 59.24688 | 31.54496 | 24065 ft | 383 kts | 308° |
| 2026-05-04 18:30 | 59.28509 | 31.47179 | 22513 ft | 382 kts | 309° |
| 2026-05-04 18:30 | 59.30386 | 31.43577 | 21740 ft | 382 kts | 309° |
| 2026-05-04 18:30 | 59.32274 | 31.39944 | 21018 ft | 379 kts | 309° |
| 2026-05-04 18:31 | 59.34098 | 31.36449 | 20890 ft | 359 kts | 308° |
| 2026-05-04 18:31 | 59.35851 | 31.33069 | 20036 ft | 356 kts | 308° |
| 2026-05-04 18:31 | 59.37598 | 31.29691 | 19337 ft | 349 kts | 307° |
| 2026-05-04 18:31 | 59.39302 | 31.26391 | 18538 ft | 345 kts | 308° |
| 2026-05-04 18:32 | 59.40992 | 31.23118 | 17802 ft | 340 kts | 308° |
| 2026-05-04 18:32 | 59.42660 | 31.19880 | 17030 ft | 335 kts | 307° |
| 2026-05-04 18:32 | 59.44278 | 31.16736 | 16342 ft | 330 kts | 308° |
| 2026-05-04 18:32 | 59.45903 | 31.13574 | 15584 ft | 326 kts | 307° |
| 2026-05-04 18:33 | 59.47496 | 31.10468 | 14858 ft | 321 kts | 307° |
| 2026-05-04 18:33 | 59.49052 | 31.07432 | 14164 ft | 316 kts | 307° |
| 2026-05-04 18:33 | 59.50733 | 31.04610 | 13345 ft | 324 kts | 320° |
| 2026-05-04 18:33 | 59.52803 | 31.02861 | 12683 ft | 332 kts | 338° |
| 2026-05-04 18:34 | 59.55107 | 31.02377 | 11929 ft | 342 kts | 354° |
| 2026-05-04 18:34 | 59.57462 | 31.02593 | 11228 ft | 340 kts | 357° |
| 2026-05-04 18:34 | 59.59801 | 31.03572 | 10478 ft | 349 kts | 14° |
| 2026-05-04 18:34 | 59.61941 | 31.05638 | 10102 ft | 336 kts | 21° |
| 2026-05-04 18:35 | 59.64019 | 31.07774 | 9926 ft | 344 kts | 20° |
| 2026-05-04 18:35 | 59.66198 | 31.09945 | 9729 ft | 349 kts | 16° |
| 2026-05-04 18:35 | 59.68441 | 31.11190 | 9389 ft | 329 kts | 360° |
| 2026-05-04 18:35 | 59.70692 | 31.11696 | 9035 ft | 320 kts | 358° |
| 2026-05-04 18:36 | 59.72850 | 31.12180 | 8607 ft | 304 kts | 358° |
| 2026-05-04 18:36 | 59.74868 | 31.12620 | 8253 ft | 283 kts | 355° |
| 2026-05-04 18:36 | 59.76716 | 31.12366 | 7917 ft | 248 kts | 335° |
| 2026-05-04 18:36 | 59.78334 | 31.11486 | 7607 ft | 243 kts | 334° |
| 2026-05-04 18:37 | 59.79994 | 31.10572 | 7232 ft | 245 kts | 334° |
| 2026-05-04 18:37 | 59.81614 | 31.09651 | 6857 ft | 240 kts | 330° |
| 2026-05-04 18:37 | 59.82933 | 31.07965 | 6497 ft | 215 kts | 300° |
| 2026-05-04 18:37 | 59.83469 | 31.05375 | 6184 ft | 202 kts | 268° |
| 2026-05-04 18:38 | 59.83108 | 31.02726 | 5846 ft | 207 kts | 237° |
| 2026-05-04 18:38 | 59.82048 | 31.00715 | 5554 ft | 209 kts | 224° |
| 2026-05-04 18:38 | 59.80982 | 30.98824 | 5295 ft | 204 kts | 229° |
| 2026-05-04 18:38 | 59.79985 | 30.96879 | 5150 ft | 197 kts | 230° |
| 2026-05-04 18:39 | 59.79051 | 30.94975 | 5014 ft | 190 kts | 231° |
| 2026-05-04 18:39 | 59.78159 | 30.93102 | 4790 ft | 184 kts | 232° |
| 2026-05-04 18:39 | 59.77294 | 30.91255 | 4587 ft | 183 kts | 232° |
| 2026-05-04 18:39 | 59.76429 | 30.89378 | 4399 ft | 188 kts | 232° |
| 2026-05-04 18:40 | 59.75546 | 30.87454 | 4196 ft | 188 kts | 232° |
| 2026-05-04 18:40 | 59.74675 | 30.85550 | 3986 ft | 186 kts | 232° |
| 2026-05-04 18:40 | 59.73802 | 30.83636 | 3785 ft | 188 kts | 232° |
| 2026-05-04 18:40 | 59.72922 | 30.81706 | 3584 ft | 188 kts | 233° |
| 2026-05-04 18:41 | 59.72046 | 30.79780 | 3380 ft | 188 kts | 233° |
| 2026-05-04 18:41 | 59.71172 | 30.77861 | 3174 ft | 187 kts | 233° |
| 2026-05-04 18:41 | 59.70193 | 30.76225 | 2963 ft | 191 kts | 208° |
| 2026-05-04 18:41 | 59.68861 | 30.76027 | 2796 ft | 202 kts | 169° |
| 2026-05-04 18:42 | 59.67630 | 30.77660 | 2671 ft | 228 kts | 131° |
| 2026-05-04 18:42 | 59.67017 | 30.80599 | 2534 ft | 237 kts | 94° |
| 2026-05-04 18:42 | 59.67316 | 30.83712 | 2522 ft | 228 kts | 56° |
| 2026-05-04 18:42 | 59.68403 | 30.85868 | 2539 ft | 222 kts | 20° |
| 2026-05-04 18:43 | 59.69852 | 30.86395 | 2528 ft | 207 kts | 343° |
| 2026-05-04 18:43 | 59.71059 | 30.85186 | 2525 ft | 191 kts | 306° |
| 2026-05-04 18:43 | 59.71550 | 30.82858 | 2532 ft | 186 kts | 269° |
| 2026-05-04 18:43 | 59.71209 | 30.80411 | 2529 ft | 188 kts | 246° |
| 2026-05-04 18:44 | 59.70560 | 30.78148 | 2498 ft | 188 kts | 242° |
| 2026-05-04 18:44 | 59.70089 | 30.76700 | 2492 ft | 188 kts | 240° |
| 2026-05-04 18:44 | 59.69067 | 30.73911 | 2511 ft | 188 kts | 237° |
| 2026-05-04 18:44 | 59.68257 | 30.71893 | 2529 ft | 188 kts | 235° |
| 2026-05-04 18:45 | 59.67559 | 30.69755 | 2485 ft | 178 kts | 257° |
| 2026-05-04 18:45 | 59.67673 | 30.67364 | 2525 ft | 183 kts | 295° |
| 2026-05-04 18:45 | 59.68545 | 30.65474 | 2520 ft | 193 kts | 316° |
| 2026-05-04 18:45 | 59.69604 | 30.63822 | 2499 ft | 191 kts | 317° |
| 2026-05-04 18:46 | 59.70665 | 30.62248 | 2501 ft | 192 kts | 318° |
| 2026-05-04 18:46 | 59.71757 | 30.60710 | 2502 ft | 193 kts | 319° |
| 2026-05-04 18:46 | 59.72850 | 30.59216 | 2498 ft | 193 kts | 320° |
| 2026-05-04 18:46 | 59.73970 | 30.57714 | 2497 ft | 193 kts | 320° |
| 2026-05-04 18:47 | 59.74919 | 30.55890 | 2487 ft | 186 kts | 295° |
| 2026-05-04 18:47 | 59.75303 | 30.53510 | 2514 ft | 185 kts | 282° |
| 2026-05-04 18:47 | 59.75601 | 30.51016 | 2499 ft | 181 kts | 284° |
| 2026-05-04 18:47 | 59.75954 | 30.48719 | 2499 ft | 167 kts | 286° |
| 2026-05-04 18:48 | 59.76276 | 30.46658 | 2347 ft | 149 kts | 285° |
| 2026-05-04 18:48 | 59.76567 | 30.44764 | 2140 ft | 134 kts | 286° |
| 2026-05-04 18:48 | 59.76862 | 30.42952 | 2064 ft | 152 kts | 286° |
| 2026-05-04 18:48 | 59.77165 | 30.40953 | 1506 ft | 151 kts | 286° |
| 2026-05-04 18:49 | 59.77435 | 30.39015 | 1070 ft | 139 kts | 284° |
| 2026-05-04 18:49 | 59.77673 | 30.37320 | 947 ft | 120 kts | 287° |
| 2026-05-04 18:49 | 59.77922 | 30.35721 | 818 ft | 124 kts | 286° |
| 2026-05-04 18:49 | 59.78164 | 30.34087 | 679 ft | 123 kts | 285° |
| 2026-05-04 18:50 | 59.78397 | 30.32489 | 528 ft | 121 kts | 286° |
| 2026-05-04 18:50 | 59.78644 | 30.30867 | 386 ft | 125 kts | 286° |
| 2026-05-04 18:50 | 59.78896 | 30.29211 | 224 ft | 125 kts | 287° |
| 2026-05-04 18:50 | 59.79140 | 30.27558 | 89 ft | 123 kts | 286° |
| 2026-05-04 18:51 | 59.79329 | 30.26272 | 89 ft | 71 kts | 285° |
| 2026-05-04 18:51 | 59.79430 | 30.25583 | 88 ft | 25 kts | 287° |
| 2026-05-04 18:51 | 59.79454 | 30.25445 | 88 ft | 1 kts | 317° |
| 2026-05-04 18:51 | 59.79456 | 30.25443 | 88 ft | 0 kts | 327° |
| 2026-05-04 18:52 | 59.79490 | 30.25504 | 88 ft | 12 kts | 76° |
| 2026-05-04 18:52 | 59.79512 | 30.25684 | 88 ft | 14 kts | 76° |
| 2026-05-04 18:52 | 59.79532 | 30.25836 | 88 ft | 0 kts | 76° |
| 2026-05-04 18:52 | 59.79538 | 30.25888 | 88 ft | 6 kts | 76° |
| 2026-05-04 18:53 | 59.79539 | 30.25894 | 88 ft | 0 kts | 75° |
| 2026-05-04 18:54 | 59.79543 | 30.25926 | 88 ft | 5 kts | 78° |
| 2026-05-04 18:54 | 59.79544 | 30.26019 | 88 ft | 7 kts | 96° |
| 2026-05-04 18:54 | 59.79532 | 30.26138 | 88 ft | 9 kts | 104° |
| 2026-05-04 18:54 | 59.79518 | 30.26238 | 88 ft | 5 kts | 99° |
| 2026-05-04 18:55 | 59.79538 | 30.26308 | 88 ft | 6 kts | 27° |
| 2026-05-04 18:55 | 59.79631 | 30.26368 | 88 ft | 5 kts | 15° |
| 2026-05-04 18:55 | 59.79662 | 30.26401 | 88 ft | 2 kts | 58° |
| 2026-05-04 18:56 | 59.79664 | 30.26461 | 88 ft | 6 kts | 100° |
| 2026-05-04 18:56 | 59.79655 | 30.26526 | 88 ft | 3 kts | 107° |
| 2026-05-04 18:56 | 59.79650 | 30.26564 | 88 ft | 4 kts | 106° |
| 2026-05-04 18:56 | 59.79645 | 30.26595 | 88 ft | 1 kts | 106° |
| 2026-05-04 18:57 | 59.79645 | 30.26596 | 88 ft | 0 kts | 106° |